createdAt,value
2023-04-28T00:03:50.039Z,68.54
2023-04-28T00:09:16.468Z,68.44
2023-04-28T00:14:41.309Z,68.38
2023-04-28T00:20:06.655Z,68.52
2023-04-28T00:25:30.570Z,68.51
2023-04-28T00:30:54.446Z,68.58
2023-04-28T00:36:18.450Z,68.65
2023-04-28T00:41:43.264Z,68.86
2023-04-28T00:47:12.119Z,68.92
2023-04-28T00:52:37.270Z,69.06
2023-04-28T00:58:02.760Z,69.15
2023-04-28T01:03:27.398Z,69.31
2023-04-28T01:08:51.479Z,69.30
2023-04-28T01:14:17.843Z,69.65
2023-04-28T01:19:43.796Z,69.74
2023-04-28T01:25:08.618Z,69.97
2023-04-28T01:30:33.308Z,69.94
2023-04-28T01:36:01.313Z,70.07
2023-04-28T01:41:25.474Z,70.26
2023-04-28T01:46:50.604Z,70.31
2023-04-28T01:52:15.780Z,70.35
2023-04-28T01:57:40.147Z,70.27
2023-04-28T02:03:04.794Z,70.24
2023-04-28T02:08:32.535Z,70.23
2023-04-28T02:13:56.822Z,70.11
2023-04-28T02:19:21.971Z,70.14
2023-04-28T02:24:46.365Z,70.31
2023-04-28T02:30:11.262Z,70.15
2023-04-28T02:35:35.412Z,70.14
2023-04-28T02:41:05.404Z,70.29
2023-04-28T02:46:29.511Z,70.77
2023-04-28T02:51:56.569Z,71.01
2023-04-28T02:57:21.626Z,70.94
2023-04-28T03:02:45.908Z,71.23
2023-04-28T03:08:10.465Z,71.41
2023-04-28T03:13:36.273Z,71.21
2023-04-28T03:19:00.637Z,71.37
2023-04-28T03:24:25.714Z,71.36
2023-04-28T03:29:52.367Z,71.36
2023-04-28T03:35:18.796Z,71.37
2023-04-28T03:40:43.441Z,71.47
2023-04-28T03:46:43.699Z,71.51
2023-04-28T03:52:08.324Z,71.44
2023-04-28T03:57:34.328Z,71.47
2023-04-28T04:02:59.282Z,71.63
2023-04-28T04:08:23.713Z,72.33
2023-04-28T04:13:48.263Z,72.53
2023-04-28T04:19:13.377Z,72.72
2023-04-28T04:24:39.066Z,72.83
2023-04-28T04:30:04.535Z,73.14
2023-04-28T04:35:29.817Z,73.27
2023-04-28T04:40:54.431Z,73.27
2023-04-28T04:46:19.536Z,73.11
2023-04-28T04:51:44.326Z,73.01
2023-04-28T04:57:10.034Z,72.76
2023-04-28T05:02:58.019Z,72.58
2023-04-28T05:08:31.004Z,72.60
2023-04-28T05:14:10.054Z,72.35
2023-04-28T05:19:36.765Z,72.22
2023-04-28T05:25:01.908Z,72.55
2023-04-28T05:30:26.886Z,72.94
2023-04-28T05:35:52.330Z,72.78
2023-04-28T05:41:17.371Z,73.10
2023-04-28T05:46:41.853Z,73.37
2023-04-28T05:52:06.307Z,73.19
2023-04-28T05:57:32.039Z,73.21
2023-04-28T06:03:01.562Z,72.63
2023-04-28T06:08:27.081Z,72.18
2023-04-28T06:13:51.968Z,71.78
2023-04-28T06:19:19.208Z,71.54
2023-04-28T06:24:44.380Z,71.61
2023-04-28T06:30:19.248Z,71.18
2023-04-28T06:35:44.431Z,70.94
2023-04-28T06:41:09.383Z,70.65
2023-04-28T06:46:34.309Z,70.49
2023-04-28T06:51:58.256Z,70.25
2023-04-28T06:57:22.971Z,70.58
2023-04-28T07:02:47.299Z,70.34
2023-04-28T07:08:11.285Z,69.80
2023-04-28T07:13:36.274Z,69.51
2023-04-28T07:19:00.996Z,69.31
2023-04-28T07:24:25.889Z,68.86
2023-04-28T07:29:50.317Z,68.73
2023-04-28T07:36:28.961Z,68.19
2023-04-28T07:42:31.709Z,67.81
2023-04-28T07:47:56.824Z,67.16
2023-04-28T07:53:21.953Z,66.33
2023-04-28T07:58:46.278Z,65.97
2023-04-28T08:04:11.612Z,64.47
2023-04-28T08:09:36.457Z,63.39
2023-04-28T08:15:00.381Z,63.60
2023-04-28T08:20:25.575Z,63.38
2023-04-28T08:25:50.820Z,63.26
2023-04-28T08:31:15.245Z,63.70
2023-04-28T08:36:39.677Z,62.43
2023-04-28T08:42:07.978Z,62.04
2023-04-28T08:47:36.627Z,61.67
2023-04-28T08:53:05.130Z,60.43
2023-04-28T08:58:29.977Z,59.62
2023-04-28T09:03:55.447Z,58.33
2023-04-28T09:09:47.932Z,57.26
2023-04-28T09:15:37.834Z,56.30
2023-04-28T09:21:13.404Z,54.84
2023-04-28T09:26:55.476Z,56.09
2023-04-28T09:32:22.562Z,54.77
2023-04-28T09:37:47.673Z,53.41
2023-04-28T09:43:34.122Z,55.14
2023-04-28T09:49:02.833Z,53.23
2023-04-28T09:54:30.506Z,52.84
2023-04-28T09:59:54.986Z,52.56
2023-04-28T10:05:22.225Z,50.14
2023-04-28T10:10:54.984Z,50.43
2023-04-28T10:16:20.594Z,50.13
2023-04-28T10:21:53.109Z,49.84
2023-04-28T10:27:18.537Z,48.25
2023-04-28T10:32:44.267Z,47.92
2023-04-28T10:38:20.795Z,47.64
2023-04-28T10:43:51.865Z,47.79
2023-04-28T10:49:17.462Z,46.52
2023-04-28T10:55:19.335Z,46.67
2023-04-28T11:00:57.212Z,45.09
2023-04-28T11:06:38.858Z,46.38
2023-04-28T11:12:11.533Z,45.24
2023-04-28T11:17:42.827Z,44.26
2023-04-28T11:23:12.232Z,44.08
2023-04-28T11:28:52.798Z,44.81
2023-04-28T11:34:25.216Z,43.29
2023-04-28T11:39:52.199Z,42.17
2023-04-28T11:45:17.216Z,43.54
2023-04-28T11:50:41.763Z,43.01
2023-04-28T11:56:09.986Z,40.72
2023-04-28T12:01:37.743Z,41.56
2023-04-28T12:07:12.974Z,40.32
2023-04-28T12:12:49.983Z,42.47
2023-04-28T12:18:19.883Z,41.72
2023-04-28T12:23:44.278Z,41.02
2023-04-28T12:29:08.201Z,40.15
2023-04-28T12:34:33.606Z,40.46
2023-04-28T12:39:58.255Z,41.44
2023-04-28T12:45:24.679Z,40.81
2023-04-28T12:50:49.582Z,40.17
2023-04-28T12:56:13.870Z,39.91
2023-04-28T13:01:38.522Z,39.76
2023-04-28T13:07:03.951Z,39.73
2023-04-28T13:12:28.324Z,39.56
2023-04-28T13:17:53.491Z,40.08
2023-04-28T13:23:18.189Z,39.94
2023-04-28T13:28:42.640Z,39.99
2023-04-28T13:34:06.570Z,40.77
2023-04-28T13:39:31.384Z,40.75
2023-04-28T13:44:55.483Z,40.76
2023-04-28T13:50:21.225Z,40.86
2023-04-28T13:55:46.736Z,40.66
2023-04-28T14:01:12.438Z,41.18
2023-04-28T14:06:37.602Z,41.83
2023-04-28T14:12:02.529Z,42.28
2023-04-28T14:17:28.795Z,43.07
2023-04-28T14:22:53.880Z,43.82
2023-04-28T14:28:18.352Z,44.13
2023-04-28T14:33:43.076Z,44.10
2023-04-28T14:39:06.892Z,44.63
2023-04-28T14:44:31.263Z,44.57
2023-04-28T14:49:55.519Z,44.23
2023-04-28T14:55:21.631Z,44.34
2023-04-28T15:00:46.331Z,44.76
2023-04-28T15:06:11.939Z,44.68
2023-04-28T15:11:36.389Z,46.54
2023-04-28T15:17:00.545Z,46.75
2023-04-28T15:22:25.291Z,47.41
2023-04-28T15:27:50.950Z,48.40
2023-04-28T15:33:18.097Z,48.87
2023-04-28T15:38:42.997Z,49.08
2023-04-28T15:44:07.719Z,49.07
2023-04-28T15:49:32.299Z,49.01
2023-04-28T15:54:56.822Z,48.19
2023-04-28T16:00:22.449Z,48.12
2023-04-28T16:05:47.605Z,48.44
2023-04-28T16:11:19.704Z,48.66
2023-04-28T16:16:44.900Z,49.03
2023-04-28T16:22:09.656Z,49.28
2023-04-28T16:27:35.648Z,49.75
2023-04-28T16:33:00.468Z,49.96
2023-04-28T16:38:25.479Z,50.11
2023-04-28T16:43:52.056Z,50.36
2023-04-28T16:49:18.618Z,50.65
2023-04-28T16:54:49.476Z,50.84
2023-04-28T17:00:22.481Z,50.64
2023-04-28T17:05:53.448Z,50.15
2023-04-28T17:11:22.345Z,49.95
2023-04-28T17:16:51.439Z,50.24
2023-04-28T17:22:21.620Z,50.79
2023-04-28T17:27:48.658Z,51.44
2023-04-28T17:33:14.809Z,51.86
2023-04-28T17:38:50.641Z,52.47
2023-04-28T17:44:22.043Z,52.46
2023-04-28T17:49:48.770Z,52.67
2023-04-28T17:55:24.398Z,52.55
2023-04-28T18:00:57.820Z,52.36
2023-04-28T18:06:29.608Z,52.33
2023-04-28T18:12:00.552Z,52.62
2023-04-28T18:17:29.500Z,52.93
2023-04-28T18:22:53.744Z,53.42
2023-04-28T18:28:18.331Z,53.96
2023-04-28T18:33:42.292Z,54.28
2023-04-28T18:39:07.044Z,54.49
2023-04-28T18:44:34.761Z,54.82
2023-04-28T18:50:00.409Z,54.91
2023-04-28T18:55:25.091Z,55.08
2023-04-28T19:00:49.500Z,55.12
2023-04-28T19:06:14.904Z,55.76
2023-04-28T19:11:38.903Z,56.21
2023-04-28T19:17:03.930Z,56.84
2023-04-28T19:22:40.772Z,57.05
2023-04-28T19:28:05.221Z,57.00
2023-04-28T19:33:30.043Z,57.16
2023-04-28T19:38:54.332Z,57.08
2023-04-28T19:44:20.615Z,57.14
2023-04-28T19:49:46.771Z,57.20
2023-04-28T19:55:13.718Z,57.46
2023-04-28T20:00:38.828Z,57.57
2023-04-28T20:06:02.953Z,57.80
2023-04-28T20:11:28.925Z,58.06
2023-04-28T20:16:54.558Z,58.37
2023-04-28T20:23:07.324Z,58.58
2023-04-28T20:29:00.130Z,58.92
2023-04-28T20:34:25.155Z,59.19
2023-04-28T20:39:51.217Z,59.49
2023-04-28T20:45:17.608Z,59.88
2023-04-28T20:50:43.596Z,60.28
2023-04-28T20:56:10.028Z,60.49
2023-04-28T21:01:35.881Z,60.56
2023-04-28T21:07:00.630Z,60.71
2023-04-28T21:12:24.642Z,61.07
2023-04-28T21:17:49.818Z,61.62
2023-04-28T21:23:14.366Z,62.13
2023-04-28T21:28:40.503Z,62.39
2023-04-28T21:34:05.332Z,62.51
2023-04-28T21:39:29.831Z,62.64
2023-04-28T21:44:54.292Z,62.85
2023-04-28T21:50:18.720Z,62.88
2023-04-28T21:55:45.153Z,63.06
2023-04-28T22:01:10.467Z,63.10
2023-04-28T22:06:36.246Z,63.13
2023-04-28T22:12:00.253Z,63.12
2023-04-28T22:17:24.178Z,63.25
2023-04-28T22:22:48.550Z,63.07
2023-04-28T22:28:12.676Z,63.10
2023-04-28T22:33:39.146Z,63.09
2023-04-28T22:39:05.311Z,63.24
2023-04-28T22:44:30.433Z,63.73
2023-04-28T22:49:55.952Z,64.05
2023-04-28T22:55:20.881Z,64.44
2023-04-28T23:00:45.353Z,64.87
2023-04-28T23:06:10.887Z,65.13
2023-04-28T23:11:36.044Z,66.19
2023-04-28T23:17:00.276Z,66.58
2023-04-28T23:22:24.836Z,67.44
2023-04-28T23:27:49.524Z,67.82
2023-04-28T23:33:13.559Z,67.92
2023-04-28T23:38:38.435Z,67.95
2023-04-28T23:44:03.239Z,68.02
2023-04-28T23:49:27.163Z,68.24
2023-04-28T23:54:51.717Z,68.55
